Time;durP1;ratioP1;P1;durP2;ratioP2;P2;SDS_P1;SDS_P2;PMS_P1;PMS_P2;Temp;Humidity;BMP_temperature;BMP_pressure;BME280_temperature;BME280_humidity;BME280_pressure;Samples;Min_cycle;Max_cycle;Signal;HPM_P1;HPM_P2
2022/11/30 00:01:12;;;;;;;46.17;18.70;;;4.30;99.90;;;;;;4839950;29;20206;-56
2022/11/30 00:03:40;;;;;;;44.97;19.43;;;4.20;99.90;;;;;;4834809;29;20704;-56
2022/11/30 00:06:10;;;;;;;44.03;18.53;;;4.20;99.90;;;;;;4832148;29;20188;-56
2022/11/30 00:08:39;;;;;;;49.10;18.37;;;4.20;99.90;;;;;;4832606;29;20204;-55
2022/11/30 00:11:09;;;;;;;47.97;19.77;;;4.20;99.90;;;;;;4836784;29;20204;-56
2022/11/30 00:13:39;;;;;;;51.63;19.73;;;4.20;99.90;;;;;;4843581;29;20529;-56
2022/11/30 00:16:08;;;;;;;45.00;18.07;;;4.20;99.90;;;;;;4839704;29;20648;-56
2022/11/30 00:18:37;;;;;;;40.87;18.07;;;4.20;99.90;;;;;;4839451;29;20207;-56
2022/11/30 00:21:08;;;;;;;38.50;17.97;;;4.20;99.90;;;;;;4840360;29;20672;-56
2022/11/30 00:23:39;;;;;;;39.37;17.07;;;4.30;99.90;;;;;;4838268;29;20219;-56
2022/11/30 00:26:09;;;;;;;44.50;18.63;;;4.20;99.90;;;;;;4839830;29;20219;-55
2022/11/30 00:28:40;;;;;;;40.67;17.77;;;4.20;99.90;;;;;;4841393;29;20211;-56
2022/11/30 00:31:11;;;;;;;36.67;17.23;;;4.20;99.90;;;;;;4835256;29;20297;-56
2022/11/30 00:33:40;;;;;;;36.10;17.07;;;4.30;99.90;;;;;;4838689;29;20212;-57
2022/11/30 00:36:12;;;;;;;40.43;16.47;;;4.30;99.90;;;;;;4841096;29;20204;-56
2022/11/30 00:38:40;;;;;;;38.47;16.23;;;4.30;99.90;;;;;;4839669;29;20211;-57
2022/11/30 00:41:09;;;;;;;36.97;16.77;;;4.30;99.90;;;;;;4841064;29;20219;-56
2022/11/30 00:43:41;;;;;;;37.93;16.37;;;4.30;99.90;;;;;;4838287;29;20200;-56
2022/11/30 00:46:10;;;;;;;35.40;16.07;;;4.30;99.90;;;;;;4839058;29;20690;-56
2022/11/30 00:48:39;;;;;;;37.73;17.03;;;4.30;99.90;;;;;;4836820;29;20296;-57
2022/11/30 00:51:10;;;;;;;36.93;16.70;;;4.30;99.90;;;;;;4839906;29;20208;-56
2022/11/30 00:53:39;;;;;;;36.57;17.17;;;4.30;99.90;;;;;;4839016;29;20221;-56
2022/11/30 00:56:08;;;;;;;35.70;16.07;;;4.30;99.90;;;;;;4832577;29;20232;-56
2022/11/30 00:58:36;;;;;;;40.07;16.13;;;4.30;99.90;;;;;;4839775;29;20208;-57
2022/11/30 01:01:07;;;;;;;39.03;16.57;;;4.40;99.90;;;;;;4840262;29;20208;-56
2022/11/30 01:03:36;;;;;;;35.90;15.50;;;4.40;99.90;;;;;;4834236;29;20260;-56
2022/11/30 01:06:05;;;;;;;38.50;16.50;;;4.40;99.90;;;;;;4838216;29;20675;-56
2022/11/30 01:08:35;;;;;;;34.33;16.13;;;4.40;99.90;;;;;;4833722;29;20580;-57
2022/11/30 01:11:08;;;;;;;38.83;16.10;;;4.40;99.90;;;;;;4835694;29;20278;-56
2022/11/30 01:13:36;;;;;;;36.80;16.57;;;4.50;99.90;;;;;;4834443;29;20200;-56
2022/11/30 01:16:11;;;;;;;34.73;16.43;;;4.50;99.90;;;;;;4823662;29;20256;-56
2022/11/30 01:18:40;;;;;;;36.43;16.53;;;4.50;99.90;;;;;;4834196;29;20295;-56
2022/11/30 01:21:09;;;;;;;35.20;16.27;;;4.50;99.90;;;;;;4839720;29;20203;-56
2022/11/30 01:23:43;;;;;;;37.40;16.10;;;4.50;99.90;;;;;;4834569;29;20574;-56
2022/11/30 01:26:12;;;;;;;37.30;16.33;;;4.50;99.90;;;;;;4844326;29;20200;-54
2022/11/30 01:28:42;;;;;;;36.90;16.27;;;4.50;99.90;;;;;;4837610;29;20353;-56
2022/11/30 01:31:14;;;;;;;35.10;15.47;;;4.50;99.90;;;;;;4843743;29;20232;-57
2022/11/30 01:33:43;;;;;;;39.63;15.70;;;4.50;99.90;;;;;;4841076;29;20207;-56
2022/11/30 01:36:13;;;;;;;39.27;16.17;;;4.50;99.90;;;;;;4843060;29;20219;-56
2022/11/30 01:38:43;;;;;;;34.37;15.40;;;4.50;99.90;;;;;;4844531;29;20208;-56
2022/11/30 01:41:14;;;;;;;34.20;15.90;;;4.50;99.90;;;;;;4838776;29;20668;-56
2022/11/30 01:43:45;;;;;;;36.37;15.33;;;4.60;99.90;;;;;;4839445;29;20215;-56
2022/11/30 01:46:28;;;;;;;32.47;14.37;;;4.60;99.90;;;;;;4855493;29;20625;-56
2022/11/30 01:49:10;;;;;;;36.90;15.93;;;4.60;99.90;;;;;;4835369;29;20593;-56
2022/11/30 01:51:46;;;;;;;36.47;15.77;;;4.50;99.90;;;;;;4838593;29;20552;-56
2022/11/30 01:54:16;;;;;;;30.70;14.23;;;4.50;99.90;;;;;;4839446;29;20207;-57
2022/11/30 01:56:48;;;;;;;37.03;15.47;;;4.60;99.90;;;;;;4842168;29;20251;-56
2022/11/30 01:59:19;;;;;;;34.07;15.40;;;4.60;99.90;;;;;;4841862;29;20230;-56
2022/11/30 02:01:49;;;;;;;33.30;14.73;;;4.60;99.90;;;;;;4840567;29;20204;-57
2022/11/30 02:04:21;;;;;;;35.27;15.70;;;4.60;99.90;;;;;;4840742;29;20212;-56
2022/11/30 02:06:50;;;;;;;34.43;15.67;;;4.70;99.90;;;;;;4839216;29;20223;-56
2022/11/30 02:09:21;;;;;;;33.23;15.27;;;4.70;99.90;;;;;;4834355;29;20652;-56
2022/11/30 02:11:50;;;;;;;36.70;14.93;;;4.70;99.90;;;;;;4842541;29;20208;-56
2022/11/30 02:14:29;;;;;;;34.97;15.57;;;4.70;99.90;;;;;;4839373;29;20292;-56
2022/11/30 02:17:08;;;;;;;38.37;16.13;;;4.70;99.90;;;;;;4838173;29;20246;-56
2022/11/30 02:20:14;;;;;;;34.10;16.10;;;4.70;99.90;;;;;;4841072;29;20287;-56
2022/11/30 02:22:54;;;;;;;34.13;15.27;;;4.70;99.90;;;;;;4840669;29;20238;-56
2022/11/30 02:25:34;;;;;;;38.20;16.00;;;4.70;99.90;;;;;;4841967;29;20340;-56
2022/11/30 02:28:21;;;;;;;39.60;16.07;;;4.70;99.90;;;;;;4841218;29;20207;-58
2022/11/30 02:30:53;;;;;;;37.50;16.27;;;4.70;99.90;;;;;;4841350;29;20216;-56
2022/11/30 02:33:25;;;;;;;39.23;15.87;;;4.70;99.90;;;;;;4839084;29;20197;-56
2022/11/30 02:35:55;;;;;;;37.93;15.97;;;4.80;99.90;;;;;;4838575;29;20231;-56
2022/11/30 02:38:26;;;;;;;38.97;16.00;;;4.80;99.90;;;;;;4843402;29;20212;-56
2022/11/30 02:40:54;;;;;;;44.17;16.93;;;4.80;99.90;;;;;;4840368;29;20200;-56
2022/11/30 02:43:25;;;;;;;39.07;16.57;;;4.80;99.90;;;;;;4840754;29;20203;-56
2022/11/30 02:46:05;;;;;;;46.27;17.27;;;4.80;99.90;;;;;;4840652;29;20204;-56
2022/11/30 02:48:42;;;;;;;48.17;18.23;;;4.80;99.90;;;;;;4835492;29;20200;-56
2022/11/30 02:51:14;;;;;;;42.77;17.70;;;4.80;99.90;;;;;;4839312;29;20207;-56
2022/11/30 02:53:43;;;;;;;38.83;16.47;;;4.80;99.90;;;;;;4834746;29;20209;-56
2022/11/30 02:56:11;;;;;;;48.27;18.60;;;4.80;99.90;;;;;;4838690;29;20243;-56
2022/11/30 02:58:39;;;;;;;48.00;18.80;;;4.80;99.90;;;;;;4840616;29;20207;-56
2022/11/30 03:01:10;;;;;;;41.97;17.23;;;4.90;99.90;;;;;;4838774;29;20215;-56
2022/11/30 03:03:38;;;;;;;44.30;17.87;;;4.80;99.90;;;;;;4835455;29;20200;-56
2022/11/30 03:06:06;;;;;;;48.53;18.13;;;4.80;99.90;;;;;;4835295;29;20279;-56
2022/11/30 03:08:35;;;;;;;46.60;18.53;;;4.80;99.90;;;;;;4836369;29;20218;-56
2022/11/30 03:11:03;;;;;;;48.17;19.20;;;4.80;99.90;;;;;;4838632;29;20196;-56
2022/11/30 03:13:34;;;;;;;45.80;17.47;;;4.80;99.90;;;;;;4834387;29;20196;-56
2022/11/30 03:16:06;;;;;;;51.13;19.13;;;4.80;99.90;;;;;;4836596;29;20216;-56
2022/11/30 03:18:37;;;;;;;42.20;17.43;;;4.90;99.90;;;;;;4831892;29;20196;-56
2022/11/30 03:21:06;;;;;;;45.63;18.07;;;4.90;99.90;;;;;;4832233;29;20215;-56
2022/11/30 03:23:35;;;;;;;45.47;18.33;;;4.90;99.90;;;;;;4849362;29;20228;-56
2022/11/30 03:26:05;;;;;;;48.00;18.87;;;4.90;99.90;;;;;;4840759;29;20207;-56
2022/11/30 03:28:33;;;;;;;42.93;17.57;;;4.90;99.90;;;;;;4839132;29;20666;-56
2022/11/30 03:31:01;;;;;;;42.03;17.47;;;4.90;99.90;;;;;;4839841;29;20207;-57
2022/11/30 03:33:30;;;;;;;40.80;17.43;;;4.90;99.90;;;;;;4836340;29;20222;-56
2022/11/30 03:36:01;;;;;;;47.03;17.93;;;4.90;99.90;;;;;;4840378;29;20243;-56
2022/11/30 03:38:29;;;;;;;39.13;17.30;;;4.90;99.90;;;;;;4838827;29;20208;-57
2022/11/30 03:41:02;;;;;;;46.17;17.70;;;4.90;99.90;;;;;;4839163;29;20212;-56
2022/11/30 03:43:30;;;;;;;45.53;18.20;;;4.90;99.90;;;;;;4839134;29;20204;-56
2022/11/30 03:45:59;;;;;;;46.30;17.87;;;4.90;99.90;;;;;;4835879;29;20197;-57
2022/11/30 03:48:28;;;;;;;46.73;17.60;;;5.00;99.90;;;;;;4843784;29;20283;-56
2022/11/30 03:50:56;;;;;;;51.73;17.80;;;4.90;99.90;;;;;;4837505;29;20208;-56
2022/11/30 03:53:25;;;;;;;44.37;17.03;;;4.90;99.90;;;;;;4842191;29;20204;-56
2022/11/30 03:55:55;;;;;;;44.73;16.87;;;4.90;99.90;;;;;;4833496;29;20243;-56
2022/11/30 03:58:24;;;;;;;40.07;16.90;;;4.90;99.90;;;;;;4838418;29;20204;-56
2022/11/30 04:01:00;;;;;;;47.43;17.77;;;4.90;99.90;;;;;;4836554;29;20208;-56
2022/11/30 04:03:29;;;;;;;41.17;17.13;;;4.90;99.90;;;;;;4836200;29;20204;-56
2022/11/30 04:05:58;;;;;;;47.97;18.47;;;4.90;99.90;;;;;;4839468;29;20211;-57
2022/11/30 04:08:28;;;;;;;43.57;16.63;;;4.90;99.90;;;;;;4838369;29;20660;-56
2022/11/30 04:10:59;;;;;;;40.77;17.17;;;4.90;99.90;;;;;;4839534;29;20212;-57
2022/11/30 04:13:28;;;;;;;46.63;17.23;;;4.90;99.90;;;;;;4837353;29;20209;-57
2022/11/30 04:15:56;;;;;;;48.10;18.17;;;4.90;99.90;;;;;;4837572;29;20314;-56
2022/11/30 04:18:27;;;;;;;49.23;18.30;;;4.90;99.90;;;;;;4832765;29;20291;-56
2022/11/30 04:20:57;;;;;;;48.63;17.87;;;4.80;99.90;;;;;;4838382;29;20234;-56
2022/11/30 04:23:30;;;;;;;45.27;17.17;;;4.80;99.90;;;;;;4840395;29;20216;-56
2022/11/30 04:25:59;;;;;;;45.47;17.87;;;4.80;99.90;;;;;;4840964;29;20216;-57
2022/11/30 04:28:27;;;;;;;50.50;18.57;;;4.80;99.90;;;;;;4839529;29;20196;-57
2022/11/30 04:30:56;;;;;;;50.00;19.10;;;4.90;99.90;;;;;;4840332;29;20283;-56
2022/11/30 04:33:24;;;;;;;47.37;17.73;;;4.90;99.90;;;;;;4839056;29;20208;-55
2022/11/30 04:35:57;;;;;;;57.80;19.80;;;4.90;99.90;;;;;;4840332;29;20690;-56
2022/11/30 04:38:28;;;;;;;59.73;19.60;;;4.90;99.90;;;;;;4838920;29;20670;-56
2022/11/30 04:40:56;;;;;;;51.90;18.50;;;4.90;99.90;;;;;;4839571;29;20204;-56
2022/11/30 04:43:25;;;;;;;61.80;20.23;;;4.90;99.90;;;;;;4833580;29;20650;-56
2022/11/30 04:45:54;;;;;;;57.17;20.17;;;4.90;99.90;;;;;;4839636;29;20196;-57
2022/11/30 04:48:22;;;;;;;55.93;18.97;;;4.90;99.90;;;;;;4829054;29;20230;-56
2022/11/30 04:50:50;;;;;;;53.83;18.53;;;5.10;99.90;;;;;;4839254;29;20204;-57
2022/11/30 04:53:19;;;;;;;58.87;20.03;;;5.00;99.90;;;;;;4840359;29;20678;-56
2022/11/30 04:55:51;;;;;;;57.60;19.27;;;5.00;99.90;;;;;;4838390;29;20219;-56
2022/11/30 04:58:20;;;;;;;58.37;19.67;;;5.00;99.90;;;;;;4837947;29;20256;-56
2022/11/30 05:00:48;;;;;;;55.57;18.83;;;5.00;99.90;;;;;;4835566;29;20211;-56
2022/11/30 05:03:18;;;;;;;52.93;19.27;;;5.00;99.90;;;;;;4836555;29;20712;-56
2022/11/30 05:05:47;;;;;;;55.13;18.87;;;5.00;99.90;;;;;;4835151;29;20192;-56
2022/11/30 05:08:15;;;;;;;54.00;18.57;;;5.00;99.90;;;;;;4839797;29;20211;-56
2022/11/30 05:10:45;;;;;;;56.17;19.00;;;5.10;99.90;;;;;;4839591;29;20275;-56
2022/11/30 05:13:22;;;;;;;53.90;18.57;;;5.10;99.90;;;;;;4836968;29;20206;-57
2022/11/30 05:15:52;;;;;;;53.30;19.37;;;5.10;99.90;;;;;;4833326;29;20204;-57
2022/11/30 05:18:21;;;;;;;54.40;18.77;;;5.10;99.90;;;;;;4829303;29;20215;-56
2022/11/30 05:20:50;;;;;;;53.30;18.83;;;5.10;99.90;;;;;;4837212;29;20927;-56
2022/11/30 05:23:20;;;;;;;58.80;19.30;;;5.10;99.90;;;;;;4838375;29;21212;-56
2022/11/30 05:25:48;;;;;;;54.63;18.93;;;5.10;99.90;;;;;;4838225;29;20200;-56
2022/11/30 05:28:16;;;;;;;52.97;18.13;;;5.10;99.90;;;;;;4838268;29;20651;-56
2022/11/30 05:30:47;;;;;;;52.13;17.77;;;5.10;99.90;;;;;;4838481;29;20222;-57
2022/11/30 05:33:15;;;;;;;54.20;18.00;;;5.10;99.90;;;;;;4839389;29;20212;-57
2022/11/30 05:35:43;;;;;;;59.00;19.10;;;5.10;99.90;;;;;;4837507;29;20568;-56
2022/11/30 05:38:12;;;;;;;63.47;18.57;;;5.10;99.90;;;;;;4836421;29;20231;-56
2022/11/30 05:40:40;;;;;;;61.30;18.80;;;5.10;99.90;;;;;;4834239;29;20233;-55
2022/11/30 05:43:08;;;;;;;56.93;18.87;;;5.10;99.90;;;;;;4831178;29;20289;-56
2022/11/30 05:45:37;;;;;;;57.27;19.33;;;5.10;99.90;;;;;;4835147;29;20695;-56
2022/11/30 05:48:07;;;;;;;58.40;19.13;;;5.10;99.90;;;;;;4837313;29;20231;-56
2022/11/30 05:50:35;;;;;;;55.63;18.90;;;5.10;99.90;;;;;;4834003;29;20207;-57
2022/11/30 05:53:03;;;;;;;74.00;18.10;;;5.10;99.90;;;;;;4834609;29;20544;-56
2022/11/30 05:55:32;;;;;;;68.17;17.40;;;5.20;99.90;;;;;;4834923;29;20212;-56
2022/11/30 05:58:01;;;;;;;61.63;19.10;;;5.10;99.90;;;;;;4834111;29;20331;-56
2022/11/30 06:00:29;;;;;;;69.53;20.57;;;5.20;99.90;;;;;;4831987;29;20208;-56
2022/11/30 06:02:58;;;;;;;90.23;20.83;;;5.20;99.90;;;;;;4834833;29;20231;-56
2022/11/30 06:05:28;;;;;;;58.97;19.13;;;5.20;99.90;;;;;;4836320;29;20679;-56
2022/11/30 06:08:00;;;;;;;79.17;19.47;;;5.20;99.90;;;;;;4835473;29;20193;-56
2022/11/30 06:10:28;;;;;;;77.37;20.40;;;5.20;99.90;;;;;;4837185;29;20592;-56
2022/11/30 06:12:56;;;;;;;102.77;19.70;;;5.20;99.90;;;;;;4831455;29;20205;-56
2022/11/30 06:15:25;;;;;;;104.53;19.13;;;5.20;99.90;;;;;;4837191;29;20245;-56
2022/11/30 06:17:56;;;;;;;83.67;19.23;;;5.10;99.90;;;;;;4837038;29;20212;-56
2022/11/30 06:20:24;;;;;;;91.87;19.63;;;5.10;99.90;;;;;;4829219;29;20277;-56
2022/11/30 06:22:54;;;;;;;92.17;19.07;;;5.10;99.90;;;;;;4840484;29;20239;-56
2022/11/30 06:25:22;;;;;;;128.83;21.03;;;5.10;99.90;;;;;;4842242;29;20201;-57
2022/11/30 06:27:50;;;;;;;113.43;19.70;;;5.10;99.90;;;;;;4838451;29;20572;-56
2022/11/30 06:30:19;;;;;;;134.77;21.53;;;5.00;99.90;;;;;;4841458;29;20192;-56
2022/11/30 06:32:48;;;;;;;123.47;20.70;;;4.90;99.90;;;;;;4835565;29;20240;-56
2022/11/30 06:35:18;;;;;;;99.23;19.93;;;4.90;99.90;;;;;;4834462;29;20196;-56
2022/11/30 06:37:46;;;;;;;76.80;20.33;;;4.90;99.90;;;;;;4841711;29;20223;-57
2022/11/30 06:40:16;;;;;;;125.40;21.83;;;4.90;99.90;;;;;;4840416;29;20208;-57
2022/11/30 06:42:45;;;;;;;92.27;21.23;;;5.00;99.90;;;;;;4838608;29;20208;-56
2022/11/30 06:45:13;;;;;;;138.47;21.20;;;4.90;99.90;;;;;;4837985;29;20208;-56
2022/11/30 06:47:41;;;;;;;134.77;20.97;;;5.00;99.90;;;;;;4838057;29;20200;-56
2022/11/30 06:50:09;;;;;;;131.07;20.83;;;5.00;99.90;;;;;;4831040;29;20868;-55
2022/11/30 06:52:39;;;;;;;172.53;22.80;;;5.00;99.90;;;;;;4839091;29;20201;-56
2022/11/30 06:55:08;;;;;;;113.60;21.63;;;4.90;99.90;;;;;;4839369;29;20196;-56
2022/11/30 06:57:38;;;;;;;95.77;21.67;;;5.00;99.90;;;;;;4837589;29;20832;-56
2022/11/30 07:00:08;;;;;;;105.50;20.80;;;5.00;99.90;;;;;;4834868;29;20204;-57
2022/11/30 07:02:37;;;;;;;124.03;22.43;;;5.00;99.90;;;;;;4838064;29;20196;-54
2022/11/30 07:05:05;;;;;;;185.90;21.90;;;5.00;99.90;;;;;;4838339;29;20197;-56
2022/11/30 07:07:34;;;;;;;89.87;21.23;;;5.00;99.90;;;;;;4841382;29;20193;-56
2022/11/30 07:10:02;;;;;;;145.33;22.20;;;4.90;99.90;;;;;;4841109;29;20208;-56
2022/11/30 07:12:31;;;;;;;133.33;21.33;;;5.00;99.90;;;;;;4840778;29;20204;-57
2022/11/30 07:15:01;;;;;;;99.50;19.07;;;4.90;99.90;;;;;;4838945;29;20571;-56
2022/11/30 07:17:29;;;;;;;131.27;22.03;;;4.90;99.90;;;;;;4840930;29;20219;-56
2022/11/30 07:19:57;;;;;;;141.90;22.40;;;4.90;99.90;;;;;;4840344;29;20216;-57
2022/11/30 07:22:25;;;;;;;85.67;19.93;;;4.90;99.90;;;;;;4840434;29;20228;-57
2022/11/30 07:27:40;;;;;;;100.97;20.63;;;4.90;99.90;;;;;;4838292;29;20206;-56
2022/11/30 07:30:11;;;;;;;97.93;20.23;;;4.80;99.90;;;;;;4841484;29;20212;-56
2022/11/30 07:32:39;;;;;;;100.60;19.93;;;4.80;99.90;;;;;;4840178;29;20216;-56
2022/11/30 07:35:08;;;;;;;89.03;20.43;;;4.90;99.90;;;;;;4837221;29;20196;-56
2022/11/30 07:37:36;;;;;;;110.23;20.40;;;4.90;99.90;;;;;;4838611;29;20223;-56
2022/11/30 07:40:05;;;;;;;82.57;18.90;;;4.90;99.90;;;;;;4825016;29;20204;-57
2022/11/30 07:42:34;;;;;;;81.97;20.47;;;4.90;99.90;;;;;;4837144;29;20204;-56
2022/11/30 07:45:02;;;;;;;108.63;21.70;;;4.90;99.90;;;;;;4837196;29;20200;-57
2022/11/30 07:47:31;;;;;;;122.23;20.57;;;4.90;99.90;;;;;;4838162;29;20533;-57
2022/11/30 07:50:00;;;;;;;115.83;20.67;;;4.90;99.90;;;;;;4843827;29;21168;-56
2022/11/30 07:52:30;;;;;;;142.03;21.57;;;4.90;99.90;;;;;;4838352;29;20280;-56
2022/11/30 07:54:58;;;;;;;72.43;18.87;;;4.90;99.90;;;;;;4835274;29;20218;-56
2022/11/30 07:57:27;;;;;;;116.10;20.07;;;4.90;99.90;;;;;;4838201;29;20240;-57
2022/11/30 07:59:55;;;;;;;110.83;20.20;;;4.90;99.90;;;;;;4838897;29;20570;-56
2022/11/30 08:02:24;;;;;;;83.70;20.00;;;4.90;99.90;;;;;;4840616;29;20212;-56
2022/11/30 08:04:57;;;;;;;160.73;21.37;;;4.90;99.90;;;;;;4837992;29;20303;-56
2022/11/30 08:07:25;;;;;;;105.33;20.80;;;4.90;99.90;;;;;;4839665;29;20208;-56
2022/11/30 08:09:53;;;;;;;158.50;21.50;;;4.90;99.90;;;;;;4842087;29;20212;-57
2022/11/30 08:12:21;;;;;;;260.30;24.73;;;4.90;99.90;;;;;;4832192;29;20192;-57
2022/11/30 08:14:50;;;;;;;149.07;21.47;;;4.90;99.90;;;;;;4837353;29;20196;-56
2022/11/30 08:17:39;;;;;;;111.90;21.23;;;4.90;99.90;;;;;;4835816;29;20204;-57
2022/11/30 08:20:11;;;;;;;212.93;24.13;;;4.90;99.90;;;;;;4839358;29;20208;-56
2022/11/30 08:22:40;;;;;;;76.17;21.00;;;4.90;99.90;;;;;;4837946;29;20614;-56
2022/11/30 08:25:09;;;;;;;109.30;21.40;;;4.90;99.90;;;;;;4836372;29;20211;-56
2022/11/30 08:27:37;;;;;;;136.53;19.87;;;4.90;99.90;;;;;;4838228;29;20211;-56
2022/11/30 08:30:07;;;;;;;116.27;20.30;;;5.00;99.90;;;;;;4835401;29;20214;-56
2022/11/30 08:32:35;;;;;;;112.83;18.50;;;5.00;99.90;;;;;;4839709;29;20659;-57
2022/11/30 08:35:03;;;;;;;105.80;19.27;;;5.00;99.90;;;;;;4836057;29;20544;-56
2022/11/30 08:37:36;;;;;;;91.63;19.37;;;5.00;99.90;;;;;;4835303;29;20283;-57
2022/11/30 08:40:06;;;;;;;81.20;18.03;;;5.00;99.90;;;;;;4834769;29;20291;-56
2022/11/30 08:42:34;;;;;;;94.00;18.40;;;5.00;99.90;;;;;;4837733;29;20211;-56
2022/11/30 08:45:02;;;;;;;82.30;19.90;;;5.00;99.90;;;;;;4839335;29;20200;-56
2022/11/30 08:47:31;;;;;;;99.20;19.83;;;5.10;99.90;;;;;;4838651;29;20704;-56
2022/11/30 08:50:00;;;;;;;114.20;20.60;;;5.10;99.90;;;;;;4833536;29;20647;-56
2022/11/30 08:52:29;;;;;;;94.03;20.07;;;5.10;99.90;;;;;;4838308;29;20196;-57
2022/11/30 08:54:58;;;;;;;83.73;20.30;;;5.10;99.90;;;;;;4835011;29;20204;-56
2022/11/30 08:57:26;;;;;;;99.40;20.03;;;5.10;99.90;;;;;;4833970;29;20247;-56
2022/11/30 08:59:55;;;;;;;84.97;18.57;;;5.20;99.90;;;;;;4840026;29;20215;-56
2022/11/30 09:02:23;;;;;;;110.23;20.87;;;5.20;99.90;;;;;;4840103;29;20212;-56
2022/11/30 09:04:52;;;;;;;95.13;19.50;;;5.20;99.90;;;;;;4854340;29;20708;-56
2022/11/30 09:07:20;;;;;;;77.07;19.33;;;5.20;99.90;;;;;;4839322;29;20206;-56
2022/11/30 09:09:49;;;;;;;84.47;19.30;;;5.30;99.90;;;;;;4839866;29;20249;-56
2022/11/30 09:12:18;;;;;;;89.43;19.93;;;5.30;99.90;;;;;;4839377;29;20204;-56
2022/11/30 09:14:48;;;;;;;97.43;23.53;;;5.30;99.90;;;;;;4841671;29;20605;-57
2022/11/30 09:17:25;;;;;;;99.47;30.43;;;5.40;99.90;;;;;;4837710;29;20227;-57
2022/11/30 09:19:53;;;;;;;97.23;21.23;;;5.40;99.90;;;;;;4841038;29;20244;-56
2022/11/30 09:22:21;;;;;;;110.80;21.30;;;5.40;99.90;;;;;;4840964;29;20746;-57
2022/11/30 09:24:49;;;;;;;90.10;21.50;;;5.50;99.90;;;;;;4840742;29;20206;-57
2022/11/30 09:27:19;;;;;;;125.50;21.80;;;5.50;99.90;;;;;;4838904;29;20204;-57
2022/11/30 09:29:47;;;;;;;111.57;20.33;;;5.50;99.90;;;;;;4839778;29;20208;-57
2022/11/30 09:32:16;;;;;;;103.97;22.33;;;5.50;99.90;;;;;;4840512;29;20550;-57
2022/11/30 09:34:45;;;;;;;83.77;24.13;;;5.60;99.90;;;;;;4838950;29;20218;-57
2022/11/30 09:37:14;;;;;;;136.97;21.73;;;5.60;99.90;;;;;;4838990;29;20343;-58
2022/11/30 09:39:42;;;;;;;108.77;21.43;;;5.60;99.90;;;;;;4831571;29;20219;-57
2022/11/30 09:42:41;;;;;;;86.37;21.97;;;5.40;99.90;;;;;;4840517;29;20204;-57
2022/11/30 09:45:16;;;;;;;93.27;22.00;;;5.50;99.90;;;;;;4841544;29;20215;-57
2022/11/30 09:48:20;;;;;;;73.30;21.50;;;5.60;99.90;;;;;;4843529;29;20203;-57
2022/11/30 09:50:50;;;;;;;88.97;23.50;;;5.70;99.90;;;;;;4841888;29;20199;-58
2022/11/30 09:53:25;;;;;;;86.97;25.13;;;5.80;99.90;;;;;;4844786;29;20202;-57
2022/11/30 09:55:58;;;;;;;84.03;24.10;;;5.80;99.90;;;;;;4843957;29;20200;-58
2022/11/30 09:58:39;;;;;;;79.00;22.50;;;5.90;99.90;;;;;;4842500;29;20193;-58
2022/11/30 10:01:16;;;;;;;79.63;23.57;;;6.00;99.90;;;;;;4843883;29;20208;-58
2022/11/30 10:03:45;;;;;;;86.47;24.10;;;6.00;99.90;;;;;;4843205;29;20208;-58
2022/11/30 10:06:22;;;;;;;78.93;24.13;;;6.10;99.90;;;;;;4843703;29;20566;-57
2022/11/30 10:09:00;;;;;;;78.73;22.43;;;6.10;99.90;;;;;;4839884;29;20207;-57
2022/11/30 10:11:44;;;;;;;72.40;23.67;;;6.10;99.90;;;;;;4841766;29;20196;-57
2022/11/30 10:14:33;;;;;;;70.70;23.17;;;6.10;99.90;;;;;;4843495;29;20211;-57
2022/11/30 10:17:09;;;;;;;72.93;22.70;;;6.10;99.90;;;;;;4830933;29;20200;-57
2022/11/30 10:19:54;;;;;;;90.80;23.13;;;6.00;99.90;;;;;;4841404;29;20227;-58
2022/11/30 10:22:29;;;;;;;107.10;23.27;;;6.00;99.90;;;;;;4834420;29;20224;-57
2022/11/30 10:25:12;;;;;;;93.17;23.00;;;6.00;99.90;;;;;;4846878;29;20199;-57
2022/11/30 10:27:49;;;;;;;71.13;23.73;;;6.00;99.90;;;;;;4843189;29;20211;-58
2022/11/30 10:30:22;;;;;;;65.63;21.40;;;6.00;99.90;;;;;;4842708;29;20204;-58
2022/11/30 10:32:53;;;;;;;72.03;21.07;;;6.20;99.90;;;;;;4843547;29;20211;-57
2022/11/30 10:35:33;;;;;;;72.30;21.60;;;6.20;99.90;;;;;;4841546;29;20674;-57
2022/11/30 10:38:10;;;;;;;82.63;22.20;;;6.20;99.90;;;;;;4841147;29;20283;-57
2022/11/30 10:40:44;;;;;;;59.37;21.77;;;6.30;99.90;;;;;;4831991;29;20691;-56
2022/11/30 10:43:18;;;;;;;74.37;22.17;;;6.30;99.90;;;;;;4839388;29;20668;-57
2022/11/30 10:45:50;;;;;;;69.30;22.87;;;6.30;99.90;;;;;;4842782;29;20203;-57
2022/11/30 10:48:24;;;;;;;82.93;23.33;;;6.40;99.90;;;;;;4843048;29;20216;-57
2022/11/30 10:50:53;;;;;;;74.33;24.00;;;6.40;99.90;;;;;;4841747;29;20675;-57
2022/11/30 10:53:22;;;;;;;76.03;22.80;;;6.30;99.90;;;;;;4839280;29;20219;-58
2022/11/30 10:55:58;;;;;;;81.10;23.40;;;6.30;99.90;;;;;;4841094;29;20211;-57
2022/11/30 10:58:31;;;;;;;60.20;22.33;;;6.30;99.90;;;;;;4842364;29;20204;-57
2022/11/30 11:01:07;;;;;;;79.17;23.80;;;6.40;99.90;;;;;;4841522;29;20230;-57
2022/11/30 11:03:36;;;;;;;85.40;23.50;;;6.30;99.90;;;;;;4844165;29;20640;-57
2022/11/30 11:06:11;;;;;;;71.40;24.87;;;6.30;99.90;;;;;;4841756;29;20711;-57
2022/11/30 11:08:44;;;;;;;63.97;23.13;;;6.30;99.90;;;;;;4843463;29;20200;-57
2022/11/30 11:11:31;;;;;;;67.90;24.47;;;6.30;99.90;;;;;;4840156;29;20198;-57
2022/11/30 11:14:16;;;;;;;63.80;24.77;;;6.40;99.90;;;;;;4839731;29;20200;-57
2022/11/30 11:16:56;;;;;;;56.90;24.57;;;6.40;99.90;;;;;;4842446;29;20200;-57
2022/11/30 11:19:33;;;;;;;56.00;23.13;;;6.40;99.90;;;;;;4839985;29;20219;-57
2022/11/30 11:22:03;;;;;;;49.83;21.03;;;6.40;99.90;;;;;;4840058;29;20219;-57
2022/11/30 11:24:33;;;;;;;51.10;22.73;;;6.30;99.90;;;;;;4839297;29;20866;-59
2022/11/30 11:27:02;;;;;;;68.93;23.97;;;6.40;99.90;;;;;;4837947;29;20541;-57
2022/11/30 11:29:32;;;;;;;78.53;25.23;;;6.40;99.90;;;;;;4841249;29;20739;-57
2022/11/30 11:32:18;;;;;;;88.67;35.47;;;6.50;99.90;;;;;;4839408;29;20208;-57
2022/11/30 11:34:47;;;;;;;115.67;26.80;;;6.60;99.90;;;;;;4836768;29;20192;-57
2022/11/30 11:37:22;;;;;;;78.73;25.73;;;6.70;99.90;;;;;;4836038;29;20231;-57
2022/11/30 11:39:59;;;;;;;72.23;25.40;;;6.40;99.90;;;;;;4838651;29;20224;-57
2022/11/30 11:42:31;;;;;;;77.80;29.40;;;6.40;99.90;;;;;;4843096;29;20207;-57
2022/11/30 11:45:01;;;;;;;61.67;25.90;;;6.50;99.90;;;;;;4837736;29;20211;-57
2022/11/30 11:47:38;;;;;;;58.40;25.63;;;6.50;99.90;;;;;;4843794;29;20226;-57
2022/11/30 11:50:30;;;;;;;61.00;24.00;;;6.60;99.90;;;;;;4837949;29;20218;-57
2022/11/30 11:53:24;;;;;;;66.80;24.87;;;6.60;99.90;;;;;;4837555;29;20212;-57
2022/11/30 11:55:57;;;;;;;58.67;24.17;;;6.80;99.90;;;;;;4836758;29;20203;-56
2022/11/30 11:58:37;;;;;;;61.73;24.83;;;6.80;99.90;;;;;;4851692;29;20204;-57
2022/11/30 12:01:11;;;;;;;57.57;25.20;;;6.80;99.90;;;;;;4839138;29;20235;-57
2022/11/30 12:04:14;;;;;;;58.67;24.83;;;6.70;99.90;;;;;;4836962;29;20200;-57
2022/11/30 12:06:45;;;;;;;64.03;25.63;;;7.00;99.90;;;;;;4829366;29;20201;-57
2022/11/30 12:09:18;;;;;;;56.73;24.00;;;7.10;99.90;;;;;;4839070;29;20200;-57
2022/11/30 12:11:48;;;;;;;52.53;22.30;;;7.20;99.90;;;;;;4842167;29;20541;-57
2022/11/30 12:14:18;;;;;;;45.63;22.53;;;7.30;99.90;;;;;;4841327;29;20288;-57
2022/11/30 12:17:12;;;;;;;51.70;23.77;;;7.20;99.90;;;;;;4840847;29;20196;-57
2022/11/30 12:19:49;;;;;;;56.13;23.97;;;7.10;99.90;;;;;;4840773;29;20274;-57
2022/11/30 12:22:37;;;;;;;53.20;23.13;;;7.10;99.90;;;;;;4834174;29;20223;-56
2022/11/30 12:25:20;;;;;;;48.83;23.10;;;7.10;99.90;;;;;;4837300;29;20216;-56
2022/11/30 12:27:53;;;;;;;52.67;24.30;;;7.20;99.90;;;;;;4838025;29;20802;-57
2022/11/30 12:30:33;;;;;;;50.80;22.50;;;7.20;99.90;;;;;;4838417;29;20988;-57
2022/11/30 12:33:11;;;;;;;53.00;22.87;;;7.30;99.90;;;;;;4834085;29;20207;-57
2022/11/30 12:35:58;;;;;;;53.33;23.90;;;7.30;99.90;;;;;;4832584;29;20565;-57
2022/11/30 12:38:44;;;;;;;52.27;23.20;;;7.50;99.90;;;;;;4833356;29;20204;-57
2022/11/30 12:41:31;;;;;;;56.10;24.67;;;7.50;99.90;;;;;;4832579;29;20221;-58
2022/11/30 12:44:28;;;;;;;60.50;25.83;;;7.40;99.90;;;;;;4833037;29;20203;-57
2022/11/30 12:47:07;;;;;;;58.20;26.03;;;7.50;99.90;;;;;;4817778;29;20327;-57
2022/11/30 12:49:51;;;;;;;49.67;23.20;;;7.40;99.90;;;;;;4830559;29;20537;-57
2022/11/30 12:52:34;;;;;;;55.83;25.60;;;7.60;99.90;;;;;;4833871;29;20203;-57
2022/11/30 12:55:14;;;;;;;54.60;24.80;;;7.50;99.90;;;;;;4835116;29;20204;-57
2022/11/30 12:57:49;;;;;;;54.67;23.90;;;7.50;99.90;;;;;;4830290;29;20588;-57
2022/11/30 13:00:20;;;;;;;54.73;23.50;;;7.50;99.90;;;;;;4829630;29;20607;-57
2022/11/30 13:03:21;;;;;;;58.30;25.87;;;7.50;99.90;;;;;;4829578;29;20207;-57